Time;durP1;ratioP1;P1;durP2;ratioP2;P2;SDS_P1;SDS_P2;PMS_P1;PMS_P2;Temp;Humidity;BMP_temperature;BMP_pressure;BME280_temperature;BME280_humidity;BME280_pressure;Samples;Min_cycle;Max_cycle;Signal;HPM_P1;HPM_P2
2022/12/07 00:48:48;;;;;;;2.60;2.13;;;4.30;99.90;;;;;;5127665;27;20672;-90
2022/12/07 00:51:25;;;;;;;7.00;2.53;;;4.30;99.90;;;;;;5135077;27;20225;-89
2022/12/07 00:53:57;;;;;;;2.17;1.60;;;4.40;99.90;;;;;;5124309;28;20205;-89
2022/12/07 00:56:30;;;;;;;2.17;1.97;;;4.40;99.90;;;;;;5117578;28;20214;-88
2022/12/07 00:59:03;;;;;;;3.60;1.93;;;4.40;99.90;;;;;;5128476;28;20194;-88
2022/12/07 01:01:38;;;;;;;1.83;1.70;;;4.40;99.90;;;;;;5124221;28;20223;-90
2022/12/07 01:04:13;;;;;;;5.63;2.00;;;4.40;99.90;;;;;;5147203;27;20273;-89
2022/12/07 01:06:47;;;;;;;3.33;1.43;;;4.40;99.90;;;;;;5150008;27;20256;-88
2022/12/07 01:09:19;;;;;;;2.70;1.90;;;4.40;99.90;;;;;;5154892;27;20185;-87
2022/12/07 01:11:51;;;;;;;3.60;1.60;;;4.40;99.90;;;;;;5154103;27;20232;-88
2022/12/07 01:14:23;;;;;;;2.57;2.00;;;4.40;99.90;;;;;;5153161;27;20198;-88
2022/12/07 01:16:55;;;;;;;3.77;1.77;;;4.40;99.90;;;;;;5154094;27;20182;-88
2022/12/07 01:19:29;;;;;;;2.30;1.90;;;4.50;99.90;;;;;;5144662;27;20209;-89
2022/12/07 01:22:01;;;;;;;4.07;2.07;;;4.50;99.90;;;;;;5124812;28;20222;-88
2022/12/07 01:24:33;;;;;;;3.70;2.67;;;4.50;99.90;;;;;;5121912;28;20203;-90
2022/12/07 01:27:05;;;;;;;4.33;2.90;;;4.60;99.90;;;;;;5121066;28;20245;-88
2022/12/07 01:29:39;;;;;;;4.43;3.20;;;4.60;99.90;;;;;;5129087;27;20205;-86
2022/12/07 01:32:10;;;;;;;4.37;2.50;;;4.60;99.90;;;;;;5139051;27;20612;-91
2022/12/07 01:34:44;;;;;;;4.63;2.90;;;4.50;99.90;;;;;;5126794;27;20229;-87
2022/12/07 01:37:16;;;;;;;4.37;3.13;;;4.50;99.90;;;;;;5139132;27;20277;-90
2022/12/07 01:39:50;;;;;;;5.73;2.43;;;4.60;99.90;;;;;;5142116;27;20204;-91
2022/12/07 01:42:25;;;;;;;3.70;2.33;;;4.50;99.90;;;;;;5119781;27;20238;-91
2022/12/07 01:45:41;;;;;;;3.40;2.57;;;4.50;99.90;;;;;;5141689;27;20206;-90
2022/12/07 01:48:17;;;;;;;3.53;2.37;;;4.50;99.90;;;;;;5140907;27;20277;-87
2022/12/07 01:50:53;;;;;;;2.80;2.20;;;4.50;99.90;;;;;;5140494;27;20227;-88
2022/12/07 01:53:27;;;;;;;4.20;2.40;;;4.50;99.90;;;;;;5139960;27;20641;-86
2022/12/07 01:56:00;;;;;;;3.43;2.43;;;4.50;99.90;;;;;;5137058;27;20197;-89
2022/12/07 01:58:32;;;;;;;2.27;1.90;;;4.50;99.90;;;;;;5132459;27;20206;-90
2022/12/07 02:01:05;;;;;;;2.47;2.10;;;4.50;99.90;;;;;;5129248;27;20493;-96
2022/12/07 02:03:40;;;;;;;3.10;2.60;;;4.50;99.90;;;;;;5131248;27;20199;-90
2022/12/07 02:06:18;;;;;;;2.60;2.23;;;4.50;99.90;;;;;;5119538;28;20206;-90
2022/12/07 02:08:49;;;;;;;3.83;2.23;;;4.40;99.90;;;;;;5137815;27;20258;-89
2022/12/07 02:11:20;;;;;;;3.87;2.60;;;4.40;99.90;;;;;;5144872;27;20193;-88
2022/12/07 02:13:52;;;;;;;3.03;2.33;;;4.40;99.90;;;;;;5128830;27;20198;-88
2022/12/07 02:16:34;;;;;;;2.40;2.13;;;4.50;99.90;;;;;;5126661;28;20213;-87
2022/12/07 02:19:39;;;;;;;4.00;2.47;;;4.40;99.90;;;;;;5105971;28;20271;-88
2022/12/07 02:22:33;;;;;;;4.00;2.33;;;4.40;99.90;;;;;;5110252;27;20260;-88
2022/12/07 02:25:18;;;;;;;3.47;2.60;;;4.30;99.90;;;;;;5115651;28;20720;-88
2022/12/07 02:27:52;;;;;;;4.67;2.90;;;4.40;99.90;;;;;;5135465;27;20340;-88
2022/12/07 02:30:30;;;;;;;4.23;3.07;;;4.40;99.90;;;;;;5127177;28;20580;-88
2022/12/07 02:33:06;;;;;;;5.33;3.23;;;4.30;99.90;;;;;;5115849;28;20209;-88
2022/12/07 02:35:44;;;;;;;4.70;3.10;;;4.30;99.90;;;;;;5120429;27;20209;-87
2022/12/07 02:38:21;;;;;;;3.80;3.23;;;4.30;99.90;;;;;;5123816;28;20266;-88
2022/12/07 02:40:56;;;;;;;4.30;3.07;;;4.30;99.90;;;;;;5126063;28;20665;-88
2022/12/07 02:43:30;;;;;;;3.17;2.80;;;4.30;99.90;;;;;;5124585;28;20237;-92
2022/12/07 02:46:08;;;;;;;4.33;3.30;;;4.30;99.90;;;;;;5112456;28;20233;-89
2022/12/07 02:48:43;;;;;;;5.17;3.10;;;4.30;99.90;;;;;;5122309;28;20226;-90
2022/12/07 02:51:16;;;;;;;3.67;3.10;;;4.30;99.90;;;;;;5129976;27;20265;-90
2022/12/07 02:53:49;;;;;;;5.47;3.27;;;4.30;99.90;;;;;;5122980;28;20275;-91
2022/12/07 02:56:32;;;;;;;4.60;3.40;;;4.30;99.90;;;;;;5117506;28;20209;-95
2022/12/07 02:59:16;;;;;;;3.40;3.10;;;4.30;99.90;;;;;;5125092;28;20274;-88
2022/12/07 03:01:58;;;;;;;4.47;3.73;;;4.30;99.90;;;;;;5125348;28;20198;-86
2022/12/07 03:04:43;;;;;;;6.10;3.53;;;4.30;99.90;;;;;;5124197;28;20202;-87
2022/12/07 03:07:25;;;;;;;4.00;3.33;;;4.30;99.90;;;;;;5127381;28;20202;-87
2022/12/07 03:10:03;;;;;;;4.47;3.67;;;4.40;99.90;;;;;;5129324;28;20775;-86
2022/12/07 03:12:42;;;;;;;6.37;3.67;;;4.30;99.90;;;;;;5128548;28;20292;-86
2022/12/07 03:15:18;;;;;;;7.00;3.40;;;4.40;99.90;;;;;;5135325;27;20213;-86
2022/12/07 03:17:52;;;;;;;5.00;3.57;;;4.30;99.90;;;;;;5124386;28;20214;-87
2022/12/07 03:20:26;;;;;;;4.90;3.40;;;4.40;99.90;;;;;;5111743;28;20673;-87
2022/12/07 03:23:00;;;;;;;4.37;3.40;;;4.40;99.90;;;;;;5126090;28;20189;-87
2022/12/07 03:25:32;;;;;;;6.77;4.03;;;4.40;99.90;;;;;;5131087;28;20190;-87
2022/12/07 03:28:08;;;;;;;4.30;3.70;;;4.40;99.90;;;;;;5129017;28;20237;-87
2022/12/07 03:30:47;;;;;;;4.90;3.57;;;4.50;99.90;;;;;;5123946;28;20198;-86
2022/12/07 03:33:24;;;;;;;4.40;3.10;;;4.40;99.90;;;;;;5115795;27;20199;-87
2022/12/07 03:36:02;;;;;;;5.67;3.30;;;4.50;99.90;;;;;;5122284;28;20863;-87
2022/12/07 03:38:39;;;;;;;3.87;3.10;;;4.50;99.90;;;;;;5110941;28;20207;-86
2022/12/07 03:41:14;;;;;;;4.03;3.37;;;4.50;99.90;;;;;;5122308;28;20201;-87
2022/12/07 03:43:46;;;;;;;5.40;3.27;;;4.50;99.90;;;;;;5120410;28;20197;-87
2022/12/07 03:46:24;;;;;;;6.07;3.03;;;4.50;99.90;;;;;;5107132;28;20219;-87
2022/12/07 03:49:06;;;;;;;3.10;2.73;;;4.50;99.90;;;;;;5115416;28;20617;-87
2022/12/07 03:51:42;;;;;;;4.87;3.40;;;4.40;99.90;;;;;;5119605;27;20210;-87
2022/12/07 03:54:20;;;;;;;4.13;3.10;;;4.40;99.90;;;;;;5129487;27;20215;-87
2022/12/07 03:56:53;;;;;;;5.73;3.27;;;4.50;99.90;;;;;;5126032;28;20210;-87
2022/12/07 03:59:25;;;;;;;4.00;3.17;;;4.40;99.90;;;;;;5137581;27;20212;-88
2022/12/07 04:01:58;;;;;;;4.50;2.93;;;4.40;99.90;;;;;;5127443;28;20654;-88
2022/12/07 04:04:38;;;;;;;5.87;3.33;;;4.40;99.90;;;;;;5133058;27;20281;-87
2022/12/07 04:07:14;;;;;;;5.83;3.53;;;4.50;99.90;;;;;;5114769;28;20228;-87
2022/12/07 04:09:45;;;;;;;4.90;3.00;;;4.40;99.90;;;;;;5115486;28;20237;-87
2022/12/07 04:12:17;;;;;;;4.37;3.17;;;4.40;99.90;;;;;;5104671;28;20302;-89
2022/12/07 04:14:48;;;;;;;5.73;3.33;;;4.40;99.90;;;;;;5125788;27;20420;-87
2022/12/07 04:17:19;;;;;;;4.23;3.53;;;4.40;99.90;;;;;;5120640;28;20209;-87
2022/12/07 04:19:52;;;;;;;4.33;3.20;;;4.40;99.90;;;;;;5117221;27;20265;-88
2022/12/07 04:22:22;;;;;;;4.77;3.30;;;4.40;99.90;;;;;;5119079;28;20209;-89
2022/12/07 04:24:54;;;;;;;5.27;3.37;;;4.40;99.90;;;;;;5118625;28;20285;-87
2022/12/07 04:27:25;;;;;;;5.17;3.20;;;4.30;99.90;;;;;;5120877;27;20212;-87
2022/12/07 04:29:56;;;;;;;5.27;3.70;;;4.30;99.90;;;;;;5122072;28;20568;-86
2022/12/07 04:32:28;;;;;;;5.97;3.43;;;4.40;99.90;;;;;;5119741;28;20202;-88
2022/12/07 04:35:01;;;;;;;5.07;3.73;;;4.40;99.90;;;;;;5110817;28;20198;-85
2022/12/07 04:37:32;;;;;;;4.60;3.73;;;4.40;99.90;;;;;;5119281;28;20214;-88
2022/12/07 04:40:02;;;;;;;5.90;3.87;;;4.30;99.90;;;;;;5119399;28;20205;-87
2022/12/07 04:42:34;;;;;;;4.77;3.93;;;4.30;99.90;;;;;;5117658;28;20202;-88
2022/12/07 04:45:06;;;;;;;7.13;3.90;;;4.40;99.90;;;;;;5118593;28;20198;-88
2022/12/07 04:47:37;;;;;;;4.33;3.57;;;4.30;99.90;;;;;;5109681;28;20214;-87
2022/12/07 04:50:12;;;;;;;5.83;4.00;;;4.40;99.90;;;;;;5106628;28;20233;-88
2022/12/07 04:52:43;;;;;;;5.90;3.70;;;4.30;99.90;;;;;;5116985;28;20477;-87
2022/12/07 04:55:14;;;;;;;3.53;3.20;;;4.30;99.90;;;;;;5111400;28;20214;-89
2022/12/07 04:57:46;;;;;;;6.33;4.00;;;4.40;99.90;;;;;;5116642;28;20194;-87
2022/12/07 05:00:18;;;;;;;6.27;3.23;;;4.30;99.90;;;;;;5127697;28;20238;-88
2022/12/07 05:02:49;;;;;;;5.43;3.77;;;4.30;99.90;;;;;;5125660;28;20273;-87
2022/12/07 05:05:23;;;;;;;4.63;3.50;;;4.40;99.90;;;;;;5127806;28;20266;-88
2022/12/07 05:07:56;;;;;;;4.03;3.63;;;4.40;99.90;;;;;;5123171;28;20210;-87
2022/12/07 05:10:27;;;;;;;4.37;3.63;;;4.40;99.90;;;;;;5125474;28;20245;-87
2022/12/07 05:12:58;;;;;;;3.83;3.20;;;4.40;99.90;;;;;;5120918;28;20206;-87
2022/12/07 05:15:29;;;;;;;6.40;3.80;;;4.40;99.90;;;;;;5120523;28;20210;-86
2022/12/07 05:18:00;;;;;;;3.77;3.40;;;4.40;99.90;;;;;;5123325;28;20578;-86
2022/12/07 05:20:32;;;;;;;4.87;3.57;;;4.40;99.90;;;;;;5105124;28;20191;-88
2022/12/07 05:23:12;;;;;;;3.80;3.40;;;4.50;99.90;;;;;;5116434;28;20250;-87
2022/12/07 05:25:44;;;;;;;4.37;3.50;;;4.50;99.90;;;;;;5141717;27;20642;-88
2022/12/07 05:28:14;;;;;;;5.60;3.27;;;4.50;99.90;;;;;;5120251;28;20218;-87
2022/12/07 05:30:46;;;;;;;5.73;3.70;;;4.50;99.90;;;;;;5120270;28;20693;-87
2022/12/07 05:33:17;;;;;;;3.70;3.30;;;4.50;99.90;;;;;;5121314;28;20290;-87
2022/12/07 05:35:50;;;;;;;5.73;3.30;;;4.50;99.90;;;;;;5124421;28;20537;-87
2022/12/07 05:38:21;;;;;;;4.10;2.80;;;4.50;99.90;;;;;;5124737;28;20281;-88
2022/12/07 05:40:52;;;;;;;4.30;3.27;;;4.50;99.90;;;;;;5127978;28;20233;-87
2022/12/07 05:43:21;;;;;;;4.63;3.33;;;4.50;99.90;;;;;;5138211;28;20270;-87
2022/12/07 05:45:53;;;;;;;5.40;3.43;;;4.50;99.90;;;;;;5139649;28;20190;-87
2022/12/07 05:48:24;;;;;;;3.97;3.33;;;4.50;99.90;;;;;;5152036;27;20231;-87
2022/12/07 05:50:57;;;;;;;4.07;3.20;;;4.50;99.90;;;;;;5158616;27;20324;-88
2022/12/07 05:53:28;;;;;;;4.13;3.17;;;4.50;99.90;;;;;;5126600;27;20213;-87
2022/12/07 05:56:00;;;;;;;3.93;3.37;;;4.50;99.90;;;;;;5129988;27;20213;-87
2022/12/07 06:01:18;;;;;;;4.77;2.60;;;4.50;99.90;;;;;;5126351;28;20217;-87
2022/12/07 06:03:49;;;;;;;3.73;3.07;;;4.50;99.90;;;;;;5124058;27;20205;-88
2022/12/07 06:06:22;;;;;;;3.63;3.00;;;4.50;99.90;;;;;;5142115;27;20217;-88
2022/12/07 06:08:53;;;;;;;4.23;3.23;;;4.50;99.90;;;;;;5142320;27;20210;-87
2022/12/07 06:14:11;;;;;;;3.77;3.10;;;4.50;99.90;;;;;;5101226;28;20286;-88
2022/12/07 06:16:42;;;;;;;3.83;3.00;;;4.50;99.90;;;;;;5122418;28;20205;-89
2022/12/07 06:19:13;;;;;;;3.93;3.17;;;4.50;99.90;;;;;;5123950;28;20614;-88
2022/12/07 06:21:45;;;;;;;3.20;2.70;;;4.50;99.90;;;;;;5109485;28;20207;-88
2022/12/07 06:24:18;;;;;;;5.03;3.10;;;4.50;99.90;;;;;;5100150;28;20207;-88
2022/12/07 06:26:49;;;;;;;3.20;2.90;;;4.50;99.90;;;;;;5100400;28;20219;-88
2022/12/07 06:29:20;;;;;;;3.13;2.50;;;4.50;99.90;;;;;;5102796;27;20288;-88
2022/12/07 06:31:52;;;;;;;3.93;2.67;;;4.50;99.90;;;;;;5143351;27;20204;-88
2022/12/07 06:34:24;;;;;;;4.03;2.43;;;4.50;99.90;;;;;;5134194;27;20213;-88
2022/12/07 06:36:57;;;;;;;3.13;2.73;;;4.50;99.90;;;;;;5120040;28;20198;-88
2022/12/07 06:39:30;;;;;;;3.93;3.50;;;4.60;99.90;;;;;;5119242;27;20301;-88
2022/12/07 06:42:01;;;;;;;3.93;2.90;;;4.50;99.90;;;;;;5122206;28;20237;-88
2022/12/07 06:44:32;;;;;;;3.40;2.73;;;4.50;99.90;;;;;;5097639;28;20651;-87
2022/12/07 06:47:04;;;;;;;3.77;2.63;;;4.50;99.90;;;;;;5098849;28;20215;-88
2022/12/07 06:49:55;;;;;;;3.43;3.07;;;4.50;99.90;;;;;;5099270;28;20233;-88
2022/12/07 06:52:28;;;;;;;4.07;2.87;;;4.50;99.90;;;;;;5120694;28;20198;-88
2022/12/07 06:54:59;;;;;;;4.57;3.03;;;4.50;99.90;;;;;;5133936;28;20214;-88
2022/12/07 06:57:30;;;;;;;4.30;2.83;;;4.50;99.90;;;;;;5134337;28;20212;-88
2022/12/07 07:00:01;;;;;;;3.57;2.87;;;4.50;99.90;;;;;;5109594;28;20631;-88
2022/12/07 07:02:33;;;;;;;4.23;3.40;;;4.50;99.90;;;;;;5106427;28;20278;-88
2022/12/07 07:05:04;;;;;;;3.50;3.20;;;4.50;99.90;;;;;;5114536;28;20206;-88
2022/12/07 07:07:38;;;;;;;4.33;3.00;;;4.50;99.90;;;;;;5122153;28;20212;-88
2022/12/07 07:10:29;;;;;;;3.50;2.63;;;4.50;99.90;;;;;;5105866;28;20225;-88
2022/12/07 07:13:00;;;;;;;3.90;3.10;;;4.50;99.90;;;;;;5118914;28;20199;-88
2022/12/07 07:15:31;;;;;;;3.97;3.00;;;4.50;99.90;;;;;;5120470;28;20543;-87
2022/12/07 07:18:03;;;;;;;3.83;3.37;;;4.50;99.90;;;;;;5120097;28;20221;-88
2022/12/07 07:20:37;;;;;;;4.27;3.17;;;4.50;99.90;;;;;;5120913;28;20187;-87
2022/12/07 07:23:11;;;;;;;3.40;3.07;;;4.50;99.90;;;;;;5110727;28;20297;-88
2022/12/07 07:25:41;;;;;;;3.63;2.87;;;4.50;99.90;;;;;;5119875;28;20198;-88
2022/12/07 07:28:12;;;;;;;5.07;3.20;;;4.50;99.90;;;;;;5119985;28;20194;-88
2022/12/07 07:30:42;;;;;;;3.87;3.20;;;4.50;99.90;;;;;;5135675;22;20235;-87
2022/12/07 07:33:14;;;;;;;5.07;3.43;;;4.50;99.90;;;;;;5073050;28;20206;-87
2022/12/07 07:35:45;;;;;;;3.13;2.80;;;4.50;99.90;;;;;;5063336;28;20211;-87
2022/12/07 07:38:17;;;;;;;4.03;3.13;;;4.50;99.90;;;;;;5066739;28;20193;-87
2022/12/07 07:40:48;;;;;;;14.30;4.93;;;4.50;99.90;;;;;;5066945;28;20203;-87
2022/12/07 07:43:18;;;;;;;3.97;2.90;;;4.50;99.90;;;;;;5072720;28;20226;-87
2022/12/07 07:45:49;;;;;;;4.70;3.03;;;4.50;99.90;;;;;;5075497;28;20218;-87
2022/12/07 07:48:22;;;;;;;4.03;2.80;;;4.50;99.90;;;;;;5080254;28;20267;-88
2022/12/07 07:50:53;;;;;;;4.50;3.10;;;4.50;99.90;;;;;;5077618;28;20238;-88
2022/12/07 07:53:25;;;;;;;3.80;3.10;;;4.50;99.90;;;;;;5079886;28;20271;-88
2022/12/07 07:55:56;;;;;;;3.73;2.90;;;4.50;99.90;;;;;;5094376;28;20196;-87
2022/12/07 07:58:27;;;;;;;3.37;3.07;;;4.50;99.90;;;;;;5084353;28;20218;-87
2022/12/07 08:00:58;;;;;;;3.97;2.80;;;4.50;99.90;;;;;;5087628;28;20192;-88
2022/12/07 08:03:30;;;;;;;2.80;2.30;;;4.50;99.90;;;;;;5094843;28;20206;-88
2022/12/07 08:06:01;;;;;;;3.20;2.80;;;4.50;99.90;;;;;;5086651;28;20208;-87
2022/12/07 08:08:33;;;;;;;4.50;2.70;;;4.50;99.90;;;;;;5075705;28;20214;-87
2022/12/07 08:11:07;;;;;;;3.73;2.77;;;4.50;99.90;;;;;;5078105;28;20230;-87
2022/12/07 08:13:38;;;;;;;4.23;2.47;;;4.50;99.90;;;;;;5076336;28;20204;-87
2022/12/07 08:16:11;;;;;;;3.17;2.30;;;4.50;99.90;;;;;;5075135;28;20259;-88
2022/12/07 08:18:43;;;;;;;3.90;2.27;;;4.50;99.90;;;;;;5078829;28;20196;-88
2022/12/07 08:21:16;;;;;;;3.50;2.17;;;4.50;99.90;;;;;;5078497;28;20203;-87
2022/12/07 08:23:49;;;;;;;2.30;2.10;;;4.50;99.90;;;;;;5076632;28;20200;-87
2022/12/07 08:26:20;;;;;;;3.37;2.30;;;4.50;99.90;;;;;;5077029;28;20238;-87
2022/12/07 08:28:51;;;;;;;3.37;2.77;;;4.60;99.90;;;;;;5076777;28;20212;-87
2022/12/07 08:31:22;;;;;;;3.17;2.60;;;4.60;99.90;;;;;;5075523;28;20231;-87
2022/12/07 08:33:53;;;;;;;2.80;2.47;;;4.60;99.90;;;;;;5074798;28;20214;-87
2022/12/07 08:36:24;;;;;;;3.73;2.30;;;4.50;99.90;;;;;;5083170;28;20581;-87
2022/12/07 08:38:57;;;;;;;2.30;2.10;;;4.60;99.90;;;;;;5080693;28;20204;-87
2022/12/07 08:41:48;;;;;;;3.10;2.43;;;4.60;99.90;;;;;;5057705;28;20208;-87
2022/12/07 08:44:19;;;;;;;3.43;2.30;;;4.60;99.90;;;;;;5073096;28;20208;-87
